Time;durP1;ratioP1;P1;durP2;ratioP2;P2;SDS_P1;SDS_P2;PMS_P1;PMS_P2;Temp;Humidity;BMP_temperature;BMP_pressure;BME280_temperature;BME280_humidity;BME280_pressure;Samples;Min_cycle;Max_cycle;Signal;HPM_P1;HPM_P2
2022/05/31 00:00:13;;;;;;;2.63;2.43;;;;;;;;;;5036309;28;20459;-59
2022/05/31 00:02:40;;;;;;;2.30;2.10;;;;;;;;;;5036162;28;20520;-59
2022/05/31 00:05:09;;;;;;;2.90;2.23;;;;;;;;;;5035995;28;20519;-59
2022/05/31 00:07:36;;;;;;;2.40;2.30;;;;;;;;;;5036224;28;20453;-59
2022/05/31 00:10:05;;;;;;;3.00;2.80;;;;;;;;;;5036108;28;20449;-59
2022/05/31 00:12:32;;;;;;;3.00;2.67;;;;;;;;;;5036046;28;20451;-59
2022/05/31 00:14:59;;;;;;;4.07;3.10;;;;;;;;;;5035994;28;20522;-59
2022/05/31 00:17:26;;;;;;;3.03;2.80;;;;;;;;;;5035650;28;20424;-59
2022/05/31 00:19:53;;;;;;;4.43;2.97;;;;;;;;;;5035713;28;20536;-59
2022/05/31 00:22:22;;;;;;;2.97;2.70;;;;;;;;;;5035908;28;20453;-59
2022/05/31 00:24:49;;;;;;;4.63;2.43;;;;;;;;;;5035791;28;20535;-59
2022/05/31 00:27:19;;;;;;;2.90;2.70;;;;;;;;;;5035721;28;20455;-59
2022/05/31 00:29:47;;;;;;;2.53;2.33;;;;;;;;;;5035581;28;20449;-59
2022/05/31 00:32:15;;;;;;;2.83;2.63;;;;;;;;;;5035722;28;20453;-59
2022/05/31 00:34:44;;;;;;;2.60;2.40;;;;;;;;;;5035684;28;20449;-58
2022/05/31 00:37:11;;;;;;;2.47;2.37;;;;;;;;;;5035615;28;20453;-59
2022/05/31 00:39:38;;;;;;;2.33;2.23;;;;;;;;;;5035405;28;20459;-59
2022/05/31 00:42:06;;;;;;;2.33;2.13;;;;;;;;;;5034553;28;20449;-59
2022/05/31 00:44:35;;;;;;;3.97;2.43;;;;;;;;;;5035287;28;20568;-59
2022/05/31 00:47:03;;;;;;;2.90;2.70;;;;;;;;;;5035197;28;20529;-59
2022/05/31 00:49:34;;;;;;;2.10;2.00;;;;;;;;;;5035553;28;20816;-59
2022/05/31 00:52:07;;;;;;;2.90;2.70;;;;;;;;;;5035431;28;20484;-59
2022/05/31 00:54:37;;;;;;;2.80;2.50;;;;;;;;;;5035236;28;20956;-59
2022/05/31 00:57:04;;;;;;;2.70;2.60;;;;;;;;;;5035066;28;20536;-60
2022/05/31 00:59:34;;;;;;;2.97;2.60;;;;;;;;;;5034955;28;20516;-59
2022/05/31 01:02:02;;;;;;;2.70;2.53;;;;;;;;;;5035133;28;20453;-59
2022/05/31 01:04:32;;;;;;;2.80;2.47;;;;;;;;;;5034884;28;20488;-59
2022/05/31 01:06:59;;;;;;;3.40;2.53;;;;;;;;;;5035090;28;20540;-59
2022/05/31 01:09:27;;;;;;;2.70;2.50;;;;;;;;;;5034855;28;20459;-59
2022/05/31 01:11:54;;;;;;;3.23;2.90;;;;;;;;;;5035008;28;20544;-59
2022/05/31 01:14:21;;;;;;;3.10;2.43;;;;;;;;;;5035002;28;20448;-59
2022/05/31 01:16:55;;;;;;;2.50;2.40;;;;;;;;;;5034881;28;20851;-59
2022/05/31 01:22:10;;;;;;;2.50;2.30;;;;;;;;;;5034897;28;20448;-59
2022/05/31 01:24:41;;;;;;;2.47;2.27;;;;;;;;;;5034908;28;20518;-59
2022/05/31 01:27:12;;;;;;;3.30;3.00;;;;;;;;;;5034690;28;20540;-59
2022/05/31 01:29:40;;;;;;;2.40;2.20;;;;;;;;;;5034496;28;20962;-59
2022/05/31 01:32:08;;;;;;;3.00;2.80;;;;;;;;;;5034917;28;20536;-59
2022/05/31 01:34:38;;;;;;;2.70;2.50;;;;;;;;;;5034337;28;20423;-59
2022/05/31 01:37:06;;;;;;;2.90;2.60;;;;;;;;;;5034937;28;20519;-59
2022/05/31 01:39:37;;;;;;;5.10;2.73;;;;;;;;;;5034250;28;20889;-59
2022/05/31 01:42:06;;;;;;;3.17;2.40;;;;;;;;;;5034393;28;20446;-59
2022/05/31 01:44:36;;;;;;;3.57;3.27;;;;;;;;;;5034324;28;20449;-59
2022/05/31 01:47:04;;;;;;;3.33;2.67;;;;;;;;;;5034166;28;20514;-59
2022/05/31 01:49:32;;;;;;;3.40;3.10;;;;;;;;;;5034068;28;20505;-59
2022/05/31 01:51:59;;;;;;;3.33;2.77;;;;;;;;;;5034192;28;20502;-59
2022/05/31 01:54:26;;;;;;;3.13;2.87;;;;;;;;;;5034132;28;20539;-59
2022/05/31 01:56:59;;;;;;;4.97;2.60;;;;;;;;;;5034049;28;20528;-59
2022/05/31 01:59:26;;;;;;;3.70;3.07;;;;;;;;;;5033894;28;20575;-59
2022/05/31 02:01:54;;;;;;;2.83;2.63;;;;;;;;;;5034053;28;20541;-59
2022/05/31 02:04:20;;;;;;;3.80;2.93;;;;;;;;;;5033987;28;20455;-59
2022/05/31 02:07:10;;;;;;;2.50;2.30;;;;;;;;;;5033917;28;20419;-59
2022/05/31 02:09:34;;;;;;;2.80;2.60;;;;;;;;;;5033651;28;20423;-59
2022/05/31 02:12:03;;;;;;;3.37;3.13;;;;;;;;;;5033657;28;20420;-59
2022/05/31 02:14:30;;;;;;;5.60;2.70;;;;;;;;;;5033481;28;20871;-59
2022/05/31 02:16:57;;;;;;;2.20;2.10;;;;;;;;;;5033647;28;20536;-59
2022/05/31 02:19:27;;;;;;;3.03;2.70;;;;;;;;;;5033558;28;20484;-59
2022/05/31 02:21:54;;;;;;;3.40;3.17;;;;;;;;;;5033635;28;20515;-59
2022/05/31 02:24:22;;;;;;;3.37;3.07;;;;;;;;;;5033539;28;20507;-59
2022/05/31 02:26:49;;;;;;;5.10;3.07;;;;;;;;;;5033376;28;20463;-59
2022/05/31 02:29:19;;;;;;;3.87;3.57;;;;;;;;;;5033636;28;20428;-59
2022/05/31 02:31:46;;;;;;;3.03;2.83;;;;;;;;;;5033498;28;20556;-59
2022/05/31 02:34:14;;;;;;;4.67;3.10;;;;;;;;;;5033369;28;20519;-59
2022/05/31 02:36:41;;;;;;;3.30;3.00;;;;;;;;;;5033252;28;20459;-59
2022/05/31 02:39:08;;;;;;;4.23;3.63;;;;;;;;;;5033005;28;20512;-59
2022/05/31 02:41:36;;;;;;;3.80;3.50;;;;;;;;;;5033233;28;20482;-59
2022/05/31 02:44:03;;;;;;;3.50;3.20;;;;;;;;;;5033111;28;20481;-59
2022/05/31 02:46:31;;;;;;;3.90;3.30;;;;;;;;;;5033182;28;20864;-59
2022/05/31 02:48:59;;;;;;;2.80;2.60;;;;;;;;;;5033168;28;20432;-59
2022/05/31 02:51:26;;;;;;;5.10;3.30;;;;;;;;;;5033152;28;20428;-59
2022/05/31 02:53:54;;;;;;;2.70;2.50;;;;;;;;;;5033022;28;20971;-59
2022/05/31 02:56:21;;;;;;;2.70;2.50;;;;;;;;;;5033221;28;20783;-59
2022/05/31 02:58:48;;;;;;;3.20;2.90;;;;;;;;;;5032985;28;20905;-59
2022/05/31 03:01:22;;;;;;;2.97;2.67;;;;;;;;;;5033123;28;20450;-59
2022/05/31 03:03:50;;;;;;;4.97;2.90;;;;;;;;;;5032958;28;20457;-59
2022/05/31 03:06:17;;;;;;;4.93;4.03;;;;;;;;;;5038344;28;20543;-59
2022/05/31 03:08:44;;;;;;;3.03;2.80;;;;;;;;;;5039406;28;20544;-59
2022/05/31 03:11:14;;;;;;;2.83;2.63;;;;;;;;;;5039558;28;20448;-59
2022/05/31 03:13:42;;;;;;;3.20;2.90;;;;;;;;;;5039629;28;20423;-59
2022/05/31 03:16:09;;;;;;;3.87;3.47;;;;;;;;;;5039559;28;20523;-59
2022/05/31 03:18:38;;;;;;;3.53;3.23;;;;;;;;;;5039438;28;20426;-59
2022/05/31 03:21:09;;;;;;;2.93;2.73;;;;;;;;;;5039386;28;20565;-59
2022/05/31 03:23:40;;;;;;;3.40;3.00;;;;;;;;;;5039805;28;20488;-59
2022/05/31 03:26:08;;;;;;;4.13;3.80;;;;;;;;;;5039716;28;20452;-59
2022/05/31 03:28:35;;;;;;;3.10;2.80;;;;;;;;;;5039581;28;20438;-59
2022/05/31 03:31:02;;;;;;;4.00;3.63;;;;;;;;;;5039392;28;20506;-59
2022/05/31 03:33:30;;;;;;;5.60;4.10;;;;;;;;;;5039306;28;20431;-60
2022/05/31 03:35:57;;;;;;;3.27;3.07;;;;;;;;;;5039341;28;20428;-58
2022/05/31 03:38:25;;;;;;;3.73;3.40;;;;;;;;;;5039383;28;20491;-59
2022/05/31 03:40:58;;;;;;;5.10;4.00;;;;;;;;;;5039431;28;20576;-58
2022/05/31 03:43:26;;;;;;;3.47;3.20;;;;;;;;;;5039144;28;20581;-59
2022/05/31 03:45:53;;;;;;;4.60;4.20;;;;;;;;;;5039096;28;20474;-59
2022/05/31 03:48:20;;;;;;;6.43;4.30;;;;;;;;;;5039360;28;20837;-59
2022/05/31 03:50:47;;;;;;;4.10;3.80;;;;;;;;;;5039231;28;20458;-59
2022/05/31 03:53:15;;;;;;;4.47;4.07;;;;;;;;;;5039182;28;20415;-59
2022/05/31 03:55:44;;;;;;;4.10;3.80;;;;;;;;;;5039156;28;20445;-59
2022/05/31 03:58:11;;;;;;;3.80;3.50;;;;;;;;;;5039142;28;20940;-59
2022/05/31 04:00:38;;;;;;;6.50;3.60;;;;;;;;;;5038942;28;20490;-59
2022/05/31 04:03:05;;;;;;;4.97;3.97;;;;;;;;;;5039275;28;20463;-59
2022/05/31 04:05:32;;;;;;;4.23;3.20;;;;;;;;;;5039161;28;20453;-60
2022/05/31 04:08:03;;;;;;;4.93;3.83;;;;;;;;;;5039105;28;20515;-59
2022/05/31 04:10:31;;;;;;;9.80;4.40;;;;;;;;;;5039078;28;20459;-59
2022/05/31 04:12:59;;;;;;;4.53;4.13;;;;;;;;;;5038981;28;20451;-59
2022/05/31 04:15:26;;;;;;;4.37;3.40;;;;;;;;;;5039212;28;20422;-59
2022/05/31 04:17:53;;;;;;;9.70;4.93;;;;;;;;;;5035134;28;20448;-59
2022/05/31 04:20:20;;;;;;;4.03;3.73;;;;;;;;;;5035719;28;20814;-59
2022/05/31 04:22:47;;;;;;;6.60;4.63;;;;;;;;;;5035808;28;20515;-59
2022/05/31 04:25:14;;;;;;;5.20;4.07;;;;;;;;;;5035676;28;20544;-59
2022/05/31 04:27:41;;;;;;;4.80;4.30;;;;;;;;;;5035522;28;20470;-59
2022/05/31 04:30:10;;;;;;;3.57;3.37;;;;;;;;;;5036013;28;20449;-59
2022/05/31 04:32:37;;;;;;;5.90;4.00;;;;;;;;;;5035575;28;20518;-59
2022/05/31 04:35:05;;;;;;;4.33;4.00;;;;;;;;;;5035543;28;20449;-59
2022/05/31 04:37:31;;;;;;;4.13;3.83;;;;;;;;;;5035469;28;20453;-59
2022/05/31 04:39:59;;;;;;;3.93;3.60;;;;;;;;;;5035495;28;20487;-59
2022/05/31 04:42:25;;;;;;;5.00;3.67;;;;;;;;;;5035358;28;20540;-59
2022/05/31 04:44:53;;;;;;;3.90;3.50;;;;;;;;;;5035122;28;20499;-60
2022/05/31 04:47:21;;;;;;;3.13;2.93;;;;;;;;;;5035617;28;20457;-59
2022/05/31 04:49:48;;;;;;;3.40;3.20;;;;;;;;;;5035145;28;20547;-59
2022/05/31 04:52:15;;;;;;;3.07;2.73;;;;;;;;;;5035237;28;20538;-59
2022/05/31 04:54:42;;;;;;;3.40;3.10;;;;;;;;;;5035133;28;20812;-59
2022/05/31 04:57:09;;;;;;;2.87;2.67;;;;;;;;;;5035189;28;20450;-59
2022/05/31 04:59:36;;;;;;;3.27;3.00;;;;;;;;;;5035239;28;20563;-59
2022/05/31 05:02:02;;;;;;;3.27;3.07;;;;;;;;;;5035000;28;20464;-59
2022/05/31 05:04:31;;;;;;;2.73;2.33;;;;;;;;;;5034916;28;20455;-59
2022/05/31 05:06:58;;;;;;;5.50;4.17;;;;;;;;;;5034853;28;20475;-59
2022/05/31 05:09:25;;;;;;;3.80;3.50;;;;;;;;;;5034588;28;20552;-59
2022/05/31 05:11:52;;;;;;;2.83;2.50;;;;;;;;;;5034893;28;20507;-59
2022/05/31 05:14:19;;;;;;;2.80;2.47;;;;;;;;;;5034871;28;20537;-59
2022/05/31 05:16:46;;;;;;;2.70;2.50;;;;;;;;;;5034784;28;20532;-59
2022/05/31 05:19:13;;;;;;;3.00;2.07;;;;;;;;;;5034586;28;20460;-59
2022/05/31 05:21:42;;;;;;;2.60;2.03;;;;;;;;;;5034587;28;20457;-59
2022/05/31 05:24:09;;;;;;;2.13;2.03;;;;;;;;;;5034611;28;20458;-59
2022/05/31 05:26:36;;;;;;;2.03;1.93;;;;;;;;;;5034698;28;20487;-59
2022/05/31 05:31:52;;;;;;;2.23;2.00;;;;;;;;;;5034436;28;20977;-59
2022/05/31 05:34:20;;;;;;;1.87;1.63;;;;;;;;;;5034151;28;20785;-59
2022/05/31 05:36:48;;;;;;;1.73;1.63;;;;;;;;;;5034345;28;20445;-59
2022/05/31 05:39:15;;;;;;;2.10;1.50;;;;;;;;;;5034309;28;20519;-60
2022/05/31 05:41:42;;;;;;;5.30;2.30;;;;;;;;;;5034176;28;20545;-60
2022/05/31 05:44:09;;;;;;;2.07;1.47;;;;;;;;;;5033947;28;20564;-59
2022/05/31 05:46:36;;;;;;;1.80;1.70;;;;;;;;;;5034249;28;20800;-59
2022/05/31 05:49:03;;;;;;;1.40;1.30;;;;;;;;;;5033785;28;20894;-60
2022/05/31 05:51:32;;;;;;;3.77;1.70;;;;;;;;;;5034041;28;20459;-60
2022/05/31 05:54:02;;;;;;;2.60;1.33;;;;;;;;;;5033899;28;20461;-60
2022/05/31 05:56:29;;;;;;;2.60;1.20;;;;;;;;;;5033869;28;20460;-59
2022/05/31 05:58:56;;;;;;;2.10;1.90;;;;;;;;;;5033595;28;21008;-60
2022/05/31 06:01:26;;;;;;;1.63;1.20;;;;;;;;;;5033535;28;20567;-60
2022/05/31 06:03:57;;;;;;;1.60;1.50;;;;;;;;;;5033850;28;20548;-60
2022/05/31 06:06:25;;;;;;;4.53;1.50;;;;;;;;;;5033689;28;20455;-60
2022/05/31 06:08:55;;;;;;;3.73;1.10;;;;;;;;;;5033421;28;20445;-60
2022/05/31 06:11:24;;;;;;;2.60;1.03;;;;;;;;;;5033405;28;20807;-59
2022/05/31 06:13:54;;;;;;;2.60;1.30;;;;;;;;;;5033364;28;20445;-60
2022/05/31 06:16:23;;;;;;;5.07;1.90;;;;;;;;;;5033443;28;20880;-60
2022/05/31 06:18:51;;;;;;;2.80;1.27;;;;;;;;;;5033508;28;20453;-60
2022/05/31 06:21:22;;;;;;;3.47;1.70;;;;;;;;;;5033270;28;20485;-59
2022/05/31 06:23:49;;;;;;;4.37;1.50;;;;;;;;;;5033438;28;20544;-60
2022/05/31 06:26:16;;;;;;;3.70;1.50;;;;;;;;;;5033363;28;20456;-60
2022/05/31 06:28:45;;;;;;;1.70;1.23;;;;;;;;;;5033721;28;20464;-60
2022/05/31 06:31:12;;;;;;;1.90;1.50;;;;;;;;;;5033426;28;20452;-60
2022/05/31 06:33:39;;;;;;;1.20;1.10;;;;;;;;;;5033306;28;20477;-60
2022/05/31 06:36:07;;;;;;;1.27;1.17;;;;;;;;;;5033226;28;21040;-60
2022/05/31 06:38:34;;;;;;;4.20;2.03;;;;;;;;;;5033109;28;20594;-60
2022/05/31 06:41:02;;;;;;;2.50;1.23;;;;;;;;;;5032224;28;20821;-60
2022/05/31 06:43:29;;;;;;;1.63;1.17;;;;;;;;;;5033005;28;20485;-61
2022/05/31 06:45:57;;;;;;;2.67;1.17;;;;;;;;;;5033042;28;20536;-59
2022/05/31 06:48:24;;;;;;;2.90;1.50;;;;;;;;;;5033115;28;20507;-60
2022/05/31 06:50:51;;;;;;;1.43;1.33;;;;;;;;;;5032670;28;20540;-60
2022/05/31 06:58:47;;;;;;;3.83;1.53;;;;;;;;;;5034314;28;20542;-60
2022/05/31 07:01:15;;;;;;;1.40;1.30;;;;;;;;;;5032674;28;20491;-60
2022/05/31 07:03:42;;;;;;;3.20;1.73;;;;;;;;;;5032837;28;20462;-60
2022/05/31 07:06:09;;;;;;;2.13;1.40;;;;;;;;;;5032863;28;20476;-60
2022/05/31 07:08:36;;;;;;;1.40;1.10;;;;;;;;;;5033018;28;20518;-60
2022/05/31 07:11:03;;;;;;;2.40;1.10;;;;;;;;;;5032751;28;21023;-58
2022/05/31 07:13:30;;;;;;;2.10;1.00;;;;;;;;;;5048219;28;20956;-59
2022/05/31 07:16:01;;;;;;;2.20;1.17;;;;;;;;;;5052460;28;20543;-57
2022/05/31 07:18:29;;;;;;;1.33;1.23;;;;;;;;;;5052117;28;20526;-60
2022/05/31 07:20:56;;;;;;;3.13;1.10;;;;;;;;;;5040771;28;20473;-60
2022/05/31 07:23:23;;;;;;;2.93;1.47;;;;;;;;;;5054149;28;20452;-63
2022/05/31 07:25:51;;;;;;;2.80;1.40;;;;;;;;;;5058513;28;20448;-61
2022/05/31 07:28:18;;;;;;;2.53;1.40;;;;;;;;;;5052613;28;20487;-61
2022/05/31 07:30:45;;;;;;;1.60;1.17;;;;;;;;;;5052265;28;20507;-67
2022/05/31 07:33:12;;;;;;;1.83;1.30;;;;;;;;;;5052283;28;21035;-69
2022/05/31 07:35:41;;;;;;;3.40;1.17;;;;;;;;;;5051825;28;20460;-61
2022/05/31 07:38:09;;;;;;;2.50;1.30;;;;;;;;;;5052498;28;20478;-62
2022/05/31 07:40:36;;;;;;;2.00;1.60;;;;;;;;;;5053671;28;20498;-62
2022/05/31 07:43:03;;;;;;;2.83;1.40;;;;;;;;;;5051296;28;20811;-62
2022/05/31 07:45:30;;;;;;;2.00;1.17;;;;;;;;;;5053043;28;20949;-62
2022/05/31 07:47:57;;;;;;;1.83;1.23;;;;;;;;;;5056825;28;20514;-61
2022/05/31 07:50:24;;;;;;;2.70;1.30;;;;;;;;;;5051148;28;21021;-59
2022/05/31 07:52:52;;;;;;;2.27;1.10;;;;;;;;;;5041578;28;20507;-64
2022/05/31 07:55:19;;;;;;;1.90;1.00;;;;;;;;;;5041611;28;20451;-65
2022/05/31 08:00:42;;;;;;;3.30;1.07;;;;;;;;;;4982115;28;20475;-60
2022/05/31 08:03:10;;;;;;;3.37;1.07;;;;;;;;;;5042301;28;20444;-61
2022/05/31 08:05:37;;;;;;;1.70;1.00;;;;;;;;;;5054233;28;20562;-61
2022/05/31 08:08:06;;;;;;;6.63;1.50;;;;;;;;;;5066883;28;20816;-62
2022/05/31 08:10:34;;;;;;;2.30;1.00;;;;;;;;;;5055626;28;20522;-60
2022/05/31 08:13:01;;;;;;;1.47;1.20;;;;;;;;;;5054591;28;20470;-61
2022/05/31 08:15:28;;;;;;;5.70;1.50;;;;;;;;;;5056490;28;20856;-61
2022/05/31 08:17:55;;;;;;;1.30;1.20;;;;;;;;;;5057560;28;20480;-62
2022/05/31 08:20:22;;;;;;;4.40;1.20;;;;;;;;;;5055283;28;20574;-61
2022/05/31 08:22:49;;;;;;;1.20;1.10;;;;;;;;;;5052876;28;20871;-60
2022/05/31 08:25:17;;;;;;;2.43;1.47;;;;;;;;;;5053509;28;20892;-62
2022/05/31 08:27:44;;;;;;;1.53;1.20;;;;;;;;;;5056745;28;20476;-59
2022/05/31 08:30:11;;;;;;;2.27;1.53;;;;;;;;;;5055266;28;20789;-61
2022/05/31 08:32:38;;;;;;;7.90;2.00;;;;;;;;;;5046206;28;20453;-62
2022/05/31 08:35:06;;;;;;;1.70;0.93;;;;;;;;;;5035398;28;20536;-61
2022/05/31 08:37:33;;;;;;;2.57;1.20;;;;;;;;;;5052466;28;20535;-61
2022/05/31 08:40:00;;;;;;;3.87;1.40;;;;;;;;;;5057769;28;20451;-60
2022/05/31 08:42:32;;;;;;;1.47;1.00;;;;;;;;;;5057837;28;20478;-59
2022/05/31 08:45:00;;;;;;;2.63;1.30;;;;;;;;;;5054882;28;20827;-57
2022/05/31 08:47:36;;;;;;;1.20;1.00;;;;;;;;;;5055085;28;20531;-64
2022/05/31 08:53:02;;;;;;;3.10;1.30;;;;;;;;;;5075218;28;20437;-59
2022/05/31 08:58:18;;;;;;;2.70;1.37;;;;;;;;;;5074894;28;21052;-60
2022/05/31 09:00:46;;;;;;;3.27;1.33;;;;;;;;;;5074979;28;20893;-59
2022/05/31 09:03:17;;;;;;;1.07;0.97;;;;;;;;;;5062956;28;20547;-60
2022/05/31 09:05:47;;;;;;;1.63;1.43;;;;;;;;;;5055413;28;20451;-61
2022/05/31 09:08:17;;;;;;;1.90;1.10;;;;;;;;;;5052370;28;20535;-69
2022/05/31 09:10:47;;;;;;;1.60;1.37;;;;;;;;;;5046107;28;20457;-58
2022/05/31 09:13:19;;;;;;;2.77;1.20;;;;;;;;;;5053607;28;20487;-61
2022/05/31 09:15:50;;;;;;;1.40;1.23;;;;;;;;;;5043709;28;20459;-61
2022/05/31 09:18:19;;;;;;;1.23;1.13;;;;;;;;;;5053811;28;20531;-59
2022/05/31 09:20:48;;;;;;;1.13;1.03;;;;;;;;;;5057292;28;20471;-56
2022/05/31 09:23:18;;;;;;;1.10;1.00;;;;;;;;;;5053316;28;20463;-58
2022/05/31 09:25:48;;;;;;;2.70;1.27;;;;;;;;;;5053490;28;20445;-57
2022/05/31 09:28:26;;;;;;;1.80;1.30;;;;;;;;;;5053280;28;20449;-59
2022/05/31 09:30:54;;;;;;;2.17;1.80;;;;;;;;;;5044086;28;20818;-59
2022/05/31 09:33:23;;;;;;;2.20;1.30;;;;;;;;;;5055950;28;20456;-57
2022/05/31 09:35:53;;;;;;;3.20;1.60;;;;;;;;;;5051465;28;20451;-58
2022/05/31 09:38:35;;;;;;;1.30;1.20;;;;;;;;;;5044949;28;20515;-58
2022/05/31 09:41:06;;;;;;;2.20;1.07;;;;;;;;;;5038242;28;20945;-58
2022/05/31 09:43:37;;;;;;;2.80;1.30;;;;;;;;;;5052903;28;20491;-57
2022/05/31 09:46:05;;;;;;;2.10;1.40;;;;;;;;;;5053980;28;20539;-55
2022/05/31 09:48:32;;;;;;;2.33;1.30;;;;;;;;;;5054016;28;20880;-63
2022/05/31 09:51:00;;;;;;;2.27;1.27;;;;;;;;;;5037383;28;20889;-62
2022/05/31 09:59:06;;;;;;;2.70;1.60;;;;;;;;;;5050059;28;20455;-63
2022/05/31 10:01:42;;;;;;;1.20;1.07;;;;;;;;;;5050229;28;20301;-62
2022/05/31 10:04:09;;;;;;;1.47;1.20;;;;;;;;;;5037437;28;20456;-62
2022/05/31 10:06:50;;;;;;;2.33;1.20;;;;;;;;;;5053682;28;20483;-65
2022/05/31 10:09:18;;;;;;;3.17;1.30;;;;;;;;;;5055402;28;20995;-60
2022/05/31 10:11:45;;;;;;;3.93;1.47;;;;;;;;;;5050805;28;21023;-60
2022/05/31 10:14:23;;;;;;;5.90;1.50;;;;;;;;;;5066111;28;20456;-60
2022/05/31 10:16:50;;;;;;;3.13;1.60;;;;;;;;;;5063772;28;20440;-61
2022/05/31 10:19:25;;;;;;;2.57;1.47;;;;;;;;;;5055647;28;20447;-60
2022/05/31 10:21:52;;;;;;;1.73;1.60;;;;;;;;;;5054607;28;20478;-57
2022/05/31 10:24:20;;;;;;;2.93;1.67;;;;;;;;;;5052820;28;20543;-56
2022/05/31 10:27:04;;;;;;;2.70;1.40;;;;;;;;;;5041155;28;20458;-55
2022/05/31 10:29:36;;;;;;;1.70;1.40;;;;;;;;;;5052399;28;20456;-57
2022/05/31 10:32:21;;;;;;;5.70;1.70;;;;;;;;;;5050194;28;20466;-57
2022/05/31 10:34:48;;;;;;;1.97;1.43;;;;;;;;;;5051727;28;20535;-59
2022/05/31 10:37:24;;;;;;;2.10;1.63;;;;;;;;;;5052252;28;20539;-61
2022/05/31 10:40:00;;;;;;;4.70;1.50;;;;;;;;;;5052154;28;20543;-62
2022/05/31 10:42:28;;;;;;;1.70;1.37;;;;;;;;;;5040004;28;20472;-63
2022/05/31 10:45:02;;;;;;;3.37;1.70;;;;;;;;;;5045427;28;20476;-64
2022/05/31 10:47:29;;;;;;;1.87;1.40;;;;;;;;;;5052928;28;20864;-60
2022/05/31 10:49:56;;;;;;;2.40;1.37;;;;;;;;;;5053464;28;20806;-58
2022/05/31 10:52:26;;;;;;;2.07;1.40;;;;;;;;;;5054370;28;20444;-59
2022/05/31 10:55:03;;;;;;;1.90;1.47;;;;;;;;;;5052818;28;20535;-59
2022/05/31 10:57:39;;;;;;;1.67;1.50;;;;;;;;;;5050517;28;20450;-59
2022/05/31 11:00:09;;;;;;;3.63;1.90;;;;;;;;;;5052316;28;20452;-60
2022/05/31 11:02:53;;;;;;;1.97;1.70;;;;;;;;;;5057752;28;20480;-61
2022/05/31 11:05:24;;;;;;;2.17;1.37;;;;;;;;;;5051899;28;20505;-61
2022/05/31 11:13:47;;;;;;;3.00;1.60;;;;;;;;;;4991434;28;20530;-61
2022/05/31 11:16:17;;;;;;;3.60;1.70;;;;;;;;;;5029183;28;20454;-61
2022/05/31 11:18:53;;;;;;;1.93;1.63;;;;;;;;;;5054894;28;20946;-60
2022/05/31 11:21:35;;;;;;;3.00;1.67;;;;;;;;;;5042951;28;20555;-59
2022/05/31 11:24:09;;;;;;;2.33;2.03;;;;;;;;;;5056953;28;20451;-59
2022/05/31 11:26:43;;;;;;;3.83;1.63;;;;;;;;;;5049735;28;20456;-59
2022/05/31 11:29:21;;;;;;;2.30;1.60;;;;;;;;;;5050871;28;20465;-61
2022/05/31 11:31:56;;;;;;;1.50;1.40;;;;;;;;;;5054101;28;20543;-60
2022/05/31 11:34:34;;;;;;;1.30;1.20;;;;;;;;;;5053289;28;20443;-60
2022/05/31 11:37:06;;;;;;;1.60;1.50;;;;;;;;;;5059160;28;20444;-59
2022/05/31 11:39:42;;;;;;;1.50;1.40;;;;;;;;;;5056372;28;20452;-58
2022/05/31 11:42:16;;;;;;;1.63;1.50;;;;;;;;;;5055723;28;20532;-58
2022/05/31 11:44:53;;;;;;;1.60;1.30;;;;;;;;;;5058189;28;20480;-59
2022/05/31 11:47:29;;;;;;;1.60;1.20;;;;;;;;;;5056609;28;20877;-59
2022/05/31 11:50:00;;;;;;;1.87;1.70;;;;;;;;;;5059275;28;20456;-59
2022/05/31 11:52:38;;;;;;;2.27;1.70;;;;;;;;;;5055450;28;20815;-59
2022/05/31 11:55:29;;;;;;;2.20;1.60;;;;;;;;;;5058758;28;20468;-59
2022/05/31 11:58:04;;;;;;;2.10;1.50;;;;;;;;;;5058772;28;20531;-60
2022/05/31 12:00:38;;;;;;;2.00;1.80;;;;;;;;;;5055893;28;20855;-60
2022/05/31 12:03:08;;;;;;;1.70;1.57;;;;;;;;;;5056545;28;20475;-60
2022/05/31 12:05:36;;;;;;;1.70;1.60;;;;;;;;;;5063832;28;20951;-61
2022/05/31 12:08:05;;;;;;;1.70;1.60;;;;;;;;;;5055470;28;20551;-64
2022/05/31 12:10:36;;;;;;;2.23;1.60;;;;;;;;;;5055335;28;20487;-64
2022/05/31 12:13:07;;;;;;;3.00;1.20;;;;;;;;;;5056015;28;20452;-64
2022/05/31 12:15:35;;;;;;;3.30;1.50;;;;;;;;;;5054247;28;20882;-60
2022/05/31 12:18:05;;;;;;;3.40;2.70;;;;;;;;;;5051253;28;20547;-60
2022/05/31 12:20:38;;;;;;;1.40;1.30;;;;;;;;;;5055513;28;20476;-61
2022/05/31 12:23:09;;;;;;;2.17;1.50;;;;;;;;;;5043282;28;20491;-62
2022/05/31 12:25:38;;;;;;;3.30;1.60;;;;;;;;;;5039577;28;20934;-60
2022/05/31 12:28:12;;;;;;;1.83;1.60;;;;;;;;;;5047049;28;20544;-62
2022/05/31 12:30:46;;;;;;;1.23;1.13;;;;;;;;;;5037269;28;20451;-62
2022/05/31 12:33:27;;;;;;;1.53;1.43;;;;;;;;;;5056465;28;20502;-62
2022/05/31 12:35:57;;;;;;;4.13;1.50;;;;;;;;;;5053398;28;20952;-61
2022/05/31 12:38:24;;;;;;;1.80;1.23;;;;;;;;;;5052429;28;20565;-64
2022/05/31 12:40:52;;;;;;;1.70;1.47;;;;;;;;;;5039255;28;20546;-64
2022/05/31 12:43:34;;;;;;;1.40;1.30;;;;;;;;;;5057338;28;20492;-64
2022/05/31 12:46:01;;;;;;;1.67;1.50;;;;;;;;;;5048573;28;20535;-64
2022/05/31 12:48:29;;;;;;;1.60;1.50;;;;;;;;;;5054428;28;20448;-63
2022/05/31 12:51:11;;;;;;;4.90;1.70;;;;;;;;;;5065810;28;20532;-61
2022/05/31 12:53:53;;;;;;;1.97;1.77;;;;;;;;;;5056710;28;20515;-58
2022/05/31 12:56:36;;;;;;;3.60;1.40;;;;;;;;;;5058324;28;20480;-58
2022/05/31 12:59:04;;;;;;;1.90;1.80;;;;;;;;;;5054960;28;20445;-60
2022/05/31 13:01:35;;;;;;;1.67;1.40;;;;;;;;;;5053984;28;20444;-56
2022/05/31 13:04:10;;;;;;;2.30;1.53;;;;;;;;;;5054861;28;20894;-56
2022/05/31 13:06:39;;;;;;;3.30;1.57;;;;;;;;;;5045752;28;20518;-58
2022/05/31 13:09:08;;;;;;;1.87;1.60;;;;;;;;;;5051121;28;20452;-57
2022/05/31 13:20:09;;;;;;;2.27;1.47;;;;;;;;;;5054303;28;20487;-57
2022/05/31 13:22:38;;;;;;;3.87;2.23;;;;;;;;;;5054517;28;20832;-58
2022/05/31 13:25:07;;;;;;;2.17;1.30;;;;;;;;;;5054438;28;20452;-58
2022/05/31 13:27:37;;;;;;;2.23;1.50;;;;;;;;;;5054503;28;20474;-57
2022/05/31 13:30:06;;;;;;;1.73;1.43;;;;;;;;;;5054339;28;20480;-58
2022/05/31 13:32:35;;;;;;;1.40;1.30;;;;;;;;;;5054199;28;20547;-56
2022/05/31 13:35:06;;;;;;;1.50;1.40;;;;;;;;;;5054292;28;20452;-58
2022/05/31 13:37:33;;;;;;;1.60;1.50;;;;;;;;;;5054075;28;20483;-59
2022/05/31 13:40:03;;;;;;;4.03;1.57;;;;;;;;;;5054398;28;20555;-58
2022/05/31 13:42:36;;;;;;;1.50;1.40;;;;;;;;;;5054182;28;20918;-56
2022/05/31 13:45:05;;;;;;;2.40;1.30;;;;;;;;;;5054087;28;20480;-57
2022/05/31 13:47:32;;;;;;;2.57;1.50;;;;;;;;;;5053961;28;20539;-58
2022/05/31 13:50:06;;;;;;;2.20;1.33;;;;;;;;;;5053783;28;20531;-59
2022/05/31 13:52:33;;;;;;;1.30;1.20;;;;;;;;;;5054019;28;20940;-58
2022/05/31 13:55:09;;;;;;;2.03;1.23;;;;;;;;;;5054182;28;20452;-58
2022/05/31 13:57:36;;;;;;;2.03;1.43;;;;;;;;;;5053842;28;20521;-58
2022/05/31 14:00:07;;;;;;;3.00;1.50;;;;;;;;;;5053768;28;20880;-57
2022/05/31 14:02:49;;;;;;;1.50;1.40;;;;;;;;;;5053622;28;20974;-58
2022/05/31 14:05:20;;;;;;;3.27;1.60;;;;;;;;;;5053793;28;20931;-58
2022/05/31 14:07:48;;;;;;;1.87;1.43;;;;;;;;;;5053763;28;20535;-58
2022/05/31 14:10:18;;;;;;;1.73;1.30;;;;;;;;;;5053704;28;20444;-57
2022/05/31 14:12:45;;;;;;;1.97;1.40;;;;;;;;;;5053768;28;20535;-58
2022/05/31 14:15:23;;;;;;;3.13;1.70;;;;;;;;;;5053358;28;20450;-58
2022/05/31 14:17:50;;;;;;;1.70;1.50;;;;;;;;;;5053605;28;20809;-58
2022/05/31 14:20:25;;;;;;;2.60;1.30;;;;;;;;;;5053537;28;20888;-57
2022/05/31 14:22:52;;;;;;;2.13;1.47;;;;;;;;;;5053258;28;20482;-57
2022/05/31 14:25:23;;;;;;;2.47;1.83;;;;;;;;;;5053288;28;20891;-57
2022/05/31 14:27:51;;;;;;;2.00;1.53;;;;;;;;;;5053225;28;20510;-57
2022/05/31 14:30:29;;;;;;;1.43;1.30;;;;;;;;;;5053101;28;20932;-55
2022/05/31 14:33:01;;;;;;;1.30;1.10;;;;;;;;;;5053460;28;20539;-57
2022/05/31 14:35:31;;;;;;;4.30;1.57;;;;;;;;;;5053039;28;20804;-60
2022/05/31 14:37:58;;;;;;;1.70;1.57;;;;;;;;;;5053120;28;20455;-60
2022/05/31 14:40:30;;;;;;;1.93;1.50;;;;;;;;;;5053244;28;20854;-60
2022/05/31 14:42:59;;;;;;;5.10;1.47;;;;;;;;;;5053020;28;20557;-60
2022/05/31 14:45:27;;;;;;;2.43;1.60;;;;;;;;;;5053144;28;20488;-61
2022/05/31 14:47:54;;;;;;;1.90;1.53;;;;;;;;;;5053081;28;20515;-60
2022/05/31 14:50:26;;;;;;;1.50;1.33;;;;;;;;;;5052942;28;20819;-57
2022/05/31 14:52:54;;;;;;;1.40;1.30;;;;;;;;;;5053312;28;20456;-57
2022/05/31 14:55:31;;;;;;;1.40;1.30;;;;;;;;;;5053046;28;20449;-57
2022/05/31 15:00:46;;;;;;;1.40;1.30;;;;;;;;;;5052154;28;20459;-56
2022/05/31 15:03:15;;;;;;;1.40;1.30;;;;;;;;;;5052479;28;20480;-58
2022/05/31 15:05:42;;;;;;;2.03;1.50;;;;;;;;;;5052729;28;20449;-58
2022/05/31 15:08:10;;;;;;;1.40;1.30;;;;;;;;;;5052779;28;20454;-56
2022/05/31 15:10:51;;;;;;;1.40;1.30;;;;;;;;;;5052842;28;20455;-57
2022/05/31 15:19:00;;;;;;;2.63;1.13;;;;;;;;;;5052794;28;20939;-57
2022/05/31 15:21:28;;;;;;;2.63;1.30;;;;;;;;;;5052444;28;20448;-57
2022/05/31 15:23:55;;;;;;;1.40;1.30;;;;;;;;;;5052441;28;20542;-57
2022/05/31 15:26:23;;;;;;;1.60;1.50;;;;;;;;;;5052628;28;20484;-57
2022/05/31 15:28:50;;;;;;;1.57;1.10;;;;;;;;;;5052728;28;20478;-58
2022/05/31 15:31:32;;;;;;;1.40;1.30;;;;;;;;;;5052633;28;20452;-57
2022/05/31 15:33:59;;;;;;;3.33;1.57;;;;;;;;;;5052476;28;20534;-56
2022/05/31 15:36:27;;;;;;;1.67;1.57;;;;;;;;;;5052270;28;20889;-58
2022/05/31 15:38:54;;;;;;;2.00;1.17;;;;;;;;;;5052487;28;20448;-58
2022/05/31 15:41:21;;;;;;;2.83;1.50;;;;;;;;;;5052849;28;20444;-57
2022/05/31 15:43:53;;;;;;;2.33;1.50;;;;;;;;;;5052076;28;21063;-57